createdAt,value
2018-09-18T00:02:15.842Z,21.57
2018-09-18T00:04:42.442Z,21.60
2018-09-18T00:07:09.428Z,21.60
2018-09-18T00:09:36.072Z,21.62
2018-09-18T00:12:02.710Z,21.54
2018-09-18T00:14:29.351Z,21.63
2018-09-18T00:16:55.984Z,21.74
2018-09-18T00:19:22.683Z,21.87
2018-09-18T00:21:49.325Z,21.97
2018-09-18T00:24:15.961Z,22.04
2018-09-18T00:26:42.620Z,22.11
2018-09-18T00:29:09.362Z,22.19
2018-09-18T00:31:36.717Z,22.23
2018-09-18T00:34:04.685Z,22.36
2018-09-18T00:36:30.042Z,22.28
2018-09-18T00:38:56.733Z,22.32
2018-09-18T00:41:24.857Z,22.38
2018-09-18T00:43:50.085Z,22.45
2018-09-18T00:46:18.194Z,22.42
2018-09-18T00:48:43.411Z,22.44
2018-09-18T00:51:10.067Z,22.45
2018-09-18T00:53:36.764Z,22.46
2018-09-18T00:56:04.734Z,22.47
2018-09-18T00:58:30.087Z,22.50
2018-09-18T01:00:56.871Z,22.50
2018-09-18T01:03:23.576Z,22.52
2018-09-18T01:05:50.216Z,22.56
2018-09-18T01:08:16.991Z,22.55
2018-09-18T01:10:43.636Z,22.57
2018-09-18T01:13:11.482Z,22.59
2018-09-18T01:15:36.955Z,22.60
2018-09-18T01:18:03.601Z,22.60
2018-09-18T01:20:30.237Z,22.63
2018-09-18T01:22:56.897Z,22.59
2018-09-18T01:25:23.587Z,22.62
2018-09-18T01:27:50.233Z,22.64
2018-09-18T01:30:18.350Z,22.62
2018-09-18T01:32:43.501Z,22.61
2018-09-18T01:35:10.268Z,22.67
2018-09-18T01:37:36.942Z,22.66
2018-09-18T01:40:03.584Z,22.67
2018-09-18T01:42:30.223Z,22.72
2018-09-18T01:44:56.994Z,22.69
2018-09-18T01:47:23.675Z,22.71
2018-09-18T01:49:50.351Z,22.72
2018-09-18T01:52:16.980Z,22.70
2018-09-18T01:54:43.684Z,22.70
2018-09-18T01:57:10.329Z,22.73
2018-09-18T01:59:36.977Z,22.75
2018-09-18T02:02:03.630Z,22.77
2018-09-18T02:04:30.312Z,22.75
2018-09-18T02:06:56.949Z,22.72
2018-09-18T02:09:23.642Z,22.80
2018-09-18T02:11:50.278Z,22.82
2018-09-18T02:14:16.931Z,22.76
2018-09-18T02:16:43.588Z,22.79
2018-09-18T02:19:10.225Z,22.83
2018-09-18T02:21:37.032Z,22.80
2018-09-18T02:24:03.670Z,22.77
2018-09-18T02:26:30.344Z,22.82
2018-09-18T02:28:57.084Z,22.80
2018-09-18T02:31:23.859Z,22.80
2018-09-18T02:33:50.496Z,22.81
2018-09-18T02:36:17.235Z,22.80
2018-09-18T02:38:43.897Z,22.81
2018-09-18T02:41:10.591Z,22.76
2018-09-18T02:43:37.266Z,22.77
2018-09-18T02:46:03.902Z,22.78
2018-09-18T02:48:30.591Z,22.76
2018-09-18T02:50:57.317Z,22.78
2018-09-18T02:53:23.922Z,22.80
2018-09-18T02:55:50.573Z,22.78
2018-09-18T02:58:17.277Z,22.83
2018-09-18T03:00:44.017Z,22.82
2018-09-18T03:03:10.693Z,22.80
2018-09-18T03:05:37.419Z,22.80
2018-09-18T03:08:04.104Z,22.92
2018-09-18T03:10:30.738Z,22.76
2018-09-18T03:12:57.418Z,22.74
2018-09-18T03:15:24.054Z,22.67
2018-09-18T03:17:50.786Z,22.76
2018-09-18T03:20:17.435Z,22.75
2018-09-18T03:22:44.116Z,22.81
2018-09-18T03:25:10.791Z,22.84
2018-09-18T03:27:37.442Z,22.85
2018-09-18T03:30:04.082Z,22.84
2018-09-18T03:32:30.816Z,22.81
2018-09-18T03:34:57.453Z,22.76
2018-09-18T03:37:24.091Z,22.80
2018-09-18T03:39:50.765Z,22.76
2018-09-18T03:42:17.410Z,22.86
2018-09-18T03:44:44.106Z,22.85
2018-09-18T03:47:15.763Z,22.85
2018-09-18T03:49:41.987Z,22.77
2018-09-18T03:52:08.668Z,22.84
2018-09-18T03:54:35.318Z,22.77
2018-09-18T03:57:02.005Z,22.71
2018-09-18T03:59:28.642Z,22.63
2018-09-18T04:01:55.322Z,22.89
2018-09-18T04:04:22.009Z,22.83
2018-09-18T04:06:48.660Z,22.71
2018-09-18T04:09:15.305Z,22.84
2018-09-18T04:11:41.948Z,22.81
2018-09-18T04:14:08.589Z,22.92
2018-09-18T04:16:35.346Z,22.97
2018-09-18T04:19:02.001Z,22.92
2018-09-18T04:21:28.603Z,23.03
2018-09-18T04:23:55.296Z,22.85
2018-09-18T04:26:25.385Z,22.83
2018-09-18T04:28:50.617Z,22.83
2018-09-18T04:31:17.256Z,22.84
2018-09-18T04:33:43.929Z,22.82
2018-09-18T04:36:10.529Z,22.85
2018-09-18T04:38:37.306Z,22.94
2018-09-18T04:41:03.918Z,23.00
2018-09-18T04:43:30.603Z,22.96
2018-09-18T04:45:57.250Z,22.93
2018-09-18T04:48:27.086Z,22.93
2018-09-18T04:50:53.788Z,23.07
2018-09-18T04:53:20.439Z,22.95
2018-09-18T04:55:49.151Z,22.77
2018-09-18T04:58:13.746Z,22.82
2018-09-18T05:00:40.382Z,22.78
2018-09-18T05:03:07.030Z,22.92
2018-09-18T05:05:33.813Z,22.99
2018-09-18T05:08:00.405Z,23.03
2018-09-18T05:10:27.064Z,23.01
2018-09-18T05:12:53.709Z,22.96
2018-09-18T05:15:20.350Z,22.98
2018-09-18T05:17:47.071Z,23.04
2018-09-18T05:20:13.730Z,23.05
2018-09-18T05:22:40.367Z,23.15
2018-09-18T05:25:07.016Z,23.20
2018-09-18T05:27:33.659Z,23.28
2018-09-18T05:30:00.309Z,23.32
2018-09-18T05:32:29.152Z,23.35
2018-09-18T05:34:53.642Z,23.41
2018-09-18T05:37:20.285Z,23.44
2018-09-18T05:39:46.934Z,23.48
2018-09-18T05:42:13.640Z,23.54
2018-09-18T05:44:40.263Z,23.57
2018-09-18T05:47:06.905Z,23.75
2018-09-18T05:49:33.559Z,23.84
2018-09-18T05:52:00.335Z,23.80
2018-09-18T05:54:27.051Z,23.89
2018-09-18T05:56:53.713Z,23.86
2018-09-18T05:59:20.349Z,23.76
2018-09-18T06:01:47.090Z,23.85
2018-09-18T06:04:13.745Z,23.85
2018-09-18T06:06:40.387Z,23.82
2018-09-18T06:09:07.044Z,23.76
2018-09-18T06:11:33.689Z,23.81
2018-09-18T06:14:00.413Z,23.92
2018-09-18T06:16:27.169Z,23.92
2018-09-18T06:18:53.832Z,23.89
2018-09-18T06:21:20.471Z,23.86
2018-09-18T06:23:47.188Z,23.89
2018-09-18T06:26:13.999Z,23.95
2018-09-18T06:28:40.584Z,23.90
2018-09-18T06:31:07.294Z,23.93
2018-09-18T06:33:34.357Z,23.87
2018-09-18T06:36:01.005Z,23.78
2018-09-18T06:38:27.649Z,23.83
2018-09-18T06:40:54.315Z,23.82
2018-09-18T06:43:21.058Z,23.84
2018-09-18T06:45:47.766Z,23.99
2018-09-18T06:48:14.426Z,24.03
2018-09-18T06:50:41.082Z,23.94
2018-09-18T06:53:07.774Z,23.98
2018-09-18T06:55:34.425Z,24.03
2018-09-18T06:58:01.112Z,23.91
2018-09-18T07:00:27.714Z,23.90
2018-09-18T07:02:54.379Z,23.90
2018-09-18T07:05:21.041Z,23.87
2018-09-18T07:07:47.703Z,23.97
2018-09-18T07:10:14.393Z,23.93
2018-09-18T07:12:41.030Z,23.98
2018-09-18T07:15:07.692Z,23.97
2018-09-18T07:17:34.345Z,24.17
2018-09-18T07:20:01.038Z,24.20
2018-09-18T07:22:27.687Z,24.26
2018-09-18T07:24:54.469Z,24.35
2018-09-18T07:27:21.041Z,24.41
2018-09-18T07:29:47.839Z,24.30
2018-09-18T07:32:14.462Z,24.22
2018-09-18T07:34:43.321Z,24.09
2018-09-18T07:37:09.976Z,24.17
2018-09-18T07:39:36.663Z,24.10
2018-09-18T07:42:03.333Z,24.35
2018-09-18T07:44:30.041Z,24.34
2018-09-18T07:46:56.793Z,24.27
2018-09-18T07:49:23.587Z,24.19
2018-09-18T07:51:50.251Z,24.15
2018-09-18T07:54:16.946Z,24.05
2018-09-18T07:56:43.681Z,24.22
2018-09-18T07:59:10.339Z,24.10
2018-09-18T08:01:37.033Z,24.14
2018-09-18T08:04:03.675Z,24.12
2018-09-18T08:06:30.371Z,24.12
2018-09-18T08:08:57.008Z,23.99
2018-09-18T08:11:23.713Z,23.95
2018-09-18T08:13:50.404Z,23.92
2018-09-18T08:16:17.056Z,24.10
2018-09-18T08:18:44.979Z,24.12
2018-09-18T08:21:11.655Z,24.05
2018-09-18T08:23:40.355Z,23.82
2018-09-18T08:26:07.064Z,23.74
2018-09-18T08:28:33.782Z,23.75
2018-09-18T08:31:00.450Z,23.79
2018-09-18T08:33:27.189Z,23.73
2018-09-18T08:35:53.873Z,23.79
2018-09-18T08:38:20.539Z,23.73
2018-09-18T08:40:47.499Z,23.84
2018-09-18T08:43:17.523Z,23.82
2018-09-18T08:45:44.344Z,23.72
2018-09-18T08:48:10.979Z,23.74
2018-09-18T08:50:39.765Z,23.73
2018-09-18T08:53:04.323Z,23.78
2018-09-18T08:55:31.047Z,23.63
2018-09-18T08:57:57.714Z,23.62
2018-09-18T09:00:24.374Z,23.64
2018-09-18T09:02:51.024Z,23.59
2018-09-18T09:05:17.785Z,23.52
2018-09-18T09:07:44.498Z,23.55
2018-09-18T09:10:11.216Z,23.70
2018-09-18T09:12:40.914Z,23.56
2018-09-18T09:15:07.630Z,23.70
2018-09-18T09:17:34.280Z,23.60
2018-09-18T09:20:02.376Z,23.60
2018-09-18T09:22:27.646Z,23.68
2018-09-18T09:24:54.286Z,23.77
2018-09-18T09:27:21.028Z,23.71
2018-09-18T09:29:47.764Z,23.63
2018-09-18T09:32:14.495Z,23.55
2018-09-18T09:34:41.063Z,23.67
2018-09-18T09:37:07.823Z,23.57
2018-09-18T09:39:34.394Z,23.47
2018-09-18T09:42:01.131Z,23.50
2018-09-18T09:44:27.769Z,23.36
2018-09-18T09:46:54.547Z,23.43
2018-09-18T09:49:21.157Z,23.64
2018-09-18T09:51:47.891Z,23.80
2018-09-18T09:54:14.529Z,23.75
2018-09-18T09:56:41.248Z,23.74
2018-09-18T09:59:07.901Z,23.85
2018-09-18T10:01:34.538Z,23.85
2018-09-18T10:04:01.237Z,23.90
2018-09-18T10:06:27.945Z,23.96
2018-09-18T10:08:54.602Z,23.94
2018-09-18T10:11:21.264Z,23.81
2018-09-18T10:13:47.977Z,23.78
2018-09-18T10:16:14.649Z,23.73
2018-09-18T10:18:41.357Z,23.72
2018-09-18T10:21:08.089Z,23.45
2018-09-18T10:23:34.850Z,23.41
2018-09-18T10:26:01.590Z,23.36
2018-09-18T10:28:28.200Z,23.34
2018-09-18T10:30:54.812Z,23.51
2018-09-18T10:33:21.479Z,23.62
2018-09-18T10:35:48.145Z,23.73
2018-09-18T10:38:14.829Z,23.83
2018-09-18T10:40:41.561Z,23.74
2018-09-18T10:43:08.198Z,23.79
2018-09-18T10:45:34.877Z,23.93
2018-09-18T10:48:01.867Z,23.85
2018-09-18T10:50:28.493Z,23.84
2018-09-18T10:52:55.159Z,23.96
2018-09-18T10:55:21.880Z,23.94
2018-09-18T10:57:48.490Z,23.89
2018-09-18T11:00:18.040Z,23.99
2018-09-18T11:02:49.798Z,24.07
2018-09-18T11:05:16.509Z,24.15
2018-09-18T11:07:43.294Z,24.17
2018-09-18T11:10:10.073Z,24.15
2018-09-18T11:12:36.728Z,24.21
2018-09-18T11:15:03.453Z,24.20
2018-09-18T11:17:30.006Z,24.18
2018-09-18T11:19:56.781Z,24.34
2018-09-18T11:22:23.570Z,24.28
2018-09-18T11:24:50.172Z,24.39
2018-09-18T11:27:16.808Z,24.20
2018-09-18T11:29:43.643Z,24.10
2018-09-18T11:32:10.256Z,24.01
2018-09-18T11:34:36.994Z,24.12
2018-09-18T11:37:03.645Z,23.94
2018-09-18T11:39:31.647Z,23.89
2018-09-18T11:41:56.960Z,23.95
2018-09-18T11:44:23.661Z,23.93
2018-09-18T11:46:50.541Z,23.90
2018-09-18T11:49:17.042Z,23.85
2018-09-18T11:51:43.813Z,23.77
2018-09-18T11:54:10.620Z,23.97
2018-09-18T11:56:38.632Z,23.78
2018-09-18T11:59:03.929Z,23.79
2018-09-18T12:01:30.599Z,23.84
2018-09-18T12:03:57.240Z,23.90
2018-09-18T12:06:23.902Z,23.88
2018-09-18T12:08:50.647Z,23.92
2018-09-18T12:11:17.263Z,23.93
2018-09-18T12:13:43.931Z,23.96
2018-09-18T12:16:10.679Z,23.99
2018-09-18T12:18:37.322Z,24.05
2018-09-18T12:21:03.965Z,24.04
2018-09-18T12:23:30.649Z,24.09
2018-09-18T12:25:59.606Z,24.01
2018-09-18T12:28:24.122Z,24.15
2018-09-18T12:30:50.804Z,24.13
2018-09-18T12:33:17.555Z,24.10
2018-09-18T12:35:44.290Z,24.14
2018-09-18T12:38:10.893Z,24.31
2018-09-18T12:40:37.528Z,24.18
2018-09-18T12:43:04.209Z,24.16
2018-09-18T12:45:30.854Z,24.23
2018-09-18T12:47:57.589Z,24.25
2018-09-18T12:50:25.686Z,24.25
2018-09-18T12:52:50.983Z,24.30
2018-09-18T12:55:17.765Z,24.27
2018-09-18T12:57:44.476Z,24.34
2018-09-18T13:00:11.284Z,24.31
2018-09-18T13:02:37.959Z,24.29
2018-09-18T13:05:04.683Z,24.39
2018-09-18T13:07:31.334Z,24.36
2018-09-18T13:09:58.043Z,24.30
2018-09-18T13:12:24.681Z,24.38
2018-09-18T13:14:53.108Z,24.25
2018-09-18T13:17:18.096Z,24.35
2018-09-18T13:19:44.821Z,24.27
2018-09-18T13:22:11.474Z,24.28
2018-09-18T13:24:38.209Z,24.31
2018-09-18T13:27:04.847Z,24.32
2018-09-18T13:29:31.539Z,24.38
2018-09-18T13:31:58.240Z,24.42
2018-09-18T13:34:24.885Z,24.45
2018-09-18T13:36:52.926Z,24.44
2018-09-18T13:39:18.239Z,24.34
2018-09-18T13:41:44.876Z,24.39
2018-09-18T13:44:12.555Z,24.37
2018-09-18T13:46:39.238Z,24.38
2018-09-18T13:49:05.944Z,24.53
2018-09-18T13:51:33.016Z,24.46
2018-09-18T13:53:59.741Z,24.44
2018-09-18T13:56:26.532Z,24.41
2018-09-18T13:58:53.109Z,24.29
2018-09-18T14:01:19.928Z,24.24
2018-09-18T14:03:46.514Z,24.22
2018-09-18T14:06:13.184Z,24.33
2018-09-18T14:08:39.865Z,24.30
2018-09-18T14:11:06.588Z,24.20
2018-09-18T14:13:33.245Z,24.27
2018-09-18T14:15:59.952Z,24.33
2018-09-18T14:18:26.592Z,24.19
2018-09-18T14:20:56.094Z,24.42
2018-09-18T14:23:22.847Z,24.26
2018-09-18T14:25:49.571Z,24.09
2018-09-18T14:28:16.229Z,24.28
2018-09-18T14:30:46.192Z,24.28
2018-09-18T14:33:12.898Z,24.22
2018-09-18T14:35:39.585Z,24.23
2018-09-18T14:38:06.195Z,24.19
2018-09-18T14:40:32.931Z,24.13
2018-09-18T14:42:59.671Z,24.16
2018-09-18T14:45:26.366Z,24.02
2018-09-18T14:47:52.963Z,24.02
2018-09-18T14:50:19.598Z,24.06
2018-09-18T14:52:46.254Z,24.00
2018-09-18T14:55:12.992Z,24.02
2018-09-18T14:57:39.612Z,24.08
2018-09-18T15:00:06.455Z,23.94
2018-09-18T15:02:33.049Z,23.85
2018-09-18T15:04:59.825Z,23.82
2018-09-18T15:07:26.384Z,24.00
2018-09-18T15:09:55.276Z,24.14
2018-09-18T15:12:19.805Z,24.35
2018-09-18T15:14:46.471Z,24.51
2018-09-18T15:17:13.214Z,24.62
2018-09-18T15:19:39.900Z,24.69
2018-09-18T15:22:06.735Z,24.64
2018-09-18T15:24:36.343Z,24.84
2018-09-18T15:27:03.002Z,24.87
2018-09-18T15:29:29.726Z,24.99
2018-09-18T15:31:56.393Z,25.07
2018-09-18T15:34:23.047Z,25.11
2018-09-18T15:36:49.696Z,25.02
2018-09-18T15:39:16.435Z,25.14
2018-09-18T15:41:43.085Z,25.13
2018-09-18T15:44:09.773Z,25.13
2018-09-18T15:46:36.489Z,25.24
2018-09-18T15:49:03.152Z,25.22
2018-09-18T15:51:29.853Z,25.25
2018-09-18T15:53:57.189Z,25.27
2018-09-18T15:56:25.205Z,25.28
2018-09-18T15:58:50.490Z,25.28
2018-09-18T16:01:17.296Z,25.33
2018-09-18T16:03:44.042Z,25.38
2018-09-18T16:06:10.605Z,25.30
2018-09-18T16:08:37.236Z,25.33
2018-09-18T16:11:03.917Z,25.35
2018-09-18T16:13:30.639Z,25.39
2018-09-18T16:15:57.323Z,25.44
2018-09-18T16:18:23.952Z,25.45
2018-09-18T16:20:50.706Z,25.39
2018-09-18T16:23:17.473Z,25.49
2018-09-18T16:25:44.116Z,25.53
2018-09-18T16:28:10.840Z,25.50
2018-09-18T16:30:37.514Z,25.53
2018-09-18T16:33:04.199Z,25.58
2018-09-18T16:35:30.872Z,25.56
2018-09-18T16:37:57.508Z,25.59
2018-09-18T16:40:24.371Z,25.54
2018-09-18T16:42:50.968Z,25.57
2018-09-18T16:45:17.660Z,25.55
2018-09-18T16:47:45.019Z,25.58
2018-09-18T16:50:11.690Z,25.60
2018-09-18T16:52:38.755Z,25.58
2018-09-18T16:55:05.456Z,25.58
2018-09-18T16:57:34.256Z,25.48
2018-09-18T16:59:58.875Z,25.35
2018-09-18T17:02:25.630Z,25.47
2018-09-18T17:04:52.181Z,25.41
2018-09-18T17:07:18.904Z,25.46
2018-09-18T17:09:48.823Z,25.33
2018-09-18T17:12:15.503Z,25.34
2018-09-18T17:14:42.137Z,25.37
2018-09-18T17:17:08.776Z,25.29
2018-09-18T17:19:35.455Z,25.36
2018-09-18T17:22:02.121Z,25.34
2018-09-18T17:24:29.085Z,25.34
2018-09-18T17:26:55.780Z,25.27
2018-09-18T17:29:22.423Z,25.33
2018-09-18T17:31:50.424Z,25.33
2018-09-18T17:34:15.822Z,25.35
2018-09-18T17:36:42.424Z,25.33
2018-09-18T17:39:09.105Z,25.34
2018-09-18T17:41:35.912Z,25.26
2018-09-18T17:44:02.538Z,25.24
2018-09-18T17:46:29.170Z,25.19
2018-09-18T17:48:55.862Z,25.11
2018-09-18T17:51:22.507Z,25.12
2018-09-18T17:53:49.163Z,25.08
2018-09-18T17:56:15.831Z,25.13
2018-09-18T17:58:42.485Z,25.08
2018-09-18T18:01:09.193Z,25.05
2018-09-18T18:03:35.881Z,25.07
2018-09-18T18:06:02.617Z,25.04
2018-09-18T18:08:29.300Z,25.00
2018-09-18T18:10:57.297Z,25.01
2018-09-18T18:13:22.636Z,24.98
2018-09-18T18:15:49.314Z,24.97
2018-09-18T18:18:15.950Z,25.12
2018-09-18T18:20:42.716Z,25.13
2018-09-18T18:23:09.381Z,25.03
2018-09-18T18:25:36.073Z,24.96
2018-09-18T18:28:02.722Z,24.94
2018-09-18T18:30:31.040Z,24.95
2018-09-18T18:32:56.015Z,24.97
2018-09-18T18:35:22.799Z,24.92
2018-09-18T18:37:50.818Z,24.91
2018-09-18T18:40:16.133Z,24.89
2018-09-18T18:42:44.150Z,24.90
2018-09-18T18:45:12.578Z,24.87
2018-09-18T18:47:39.333Z,24.88
2018-09-18T18:50:05.932Z,24.87
2018-09-18T18:52:32.572Z,24.86
2018-09-18T18:54:59.250Z,24.85
2018-09-18T18:57:27.879Z,24.88
2018-09-18T18:59:56.494Z,24.83
2018-09-18T19:02:25.137Z,24.86
2018-09-18T19:04:49.793Z,24.83
2018-09-18T19:07:16.421Z,24.83
2018-09-18T19:09:43.148Z,24.82
2018-09-18T19:12:09.900Z,24.82
2018-09-18T19:14:36.559Z,24.80
2018-09-18T19:17:03.194Z,24.79
2018-09-18T19:19:29.845Z,24.79
2018-09-18T19:21:56.485Z,24.78
2018-09-18T19:24:23.124Z,24.77
2018-09-18T19:26:49.841Z,24.77
2018-09-18T19:29:16.488Z,24.76
2018-09-18T19:31:43.100Z,24.76
2018-09-18T19:34:09.728Z,24.76
2018-09-18T19:36:36.371Z,24.74
2018-09-18T19:39:06.432Z,24.75
2018-09-18T19:41:33.043Z,24.74
2018-09-18T19:43:59.689Z,24.71
2018-09-18T19:46:26.340Z,24.70
2018-09-18T19:48:55.995Z,24.71
2018-09-18T19:51:22.723Z,24.70
2018-09-18T19:53:49.356Z,24.70
2018-09-18T19:56:17.041Z,24.70
2018-09-18T19:58:42.737Z,24.71
2018-09-18T20:01:09.378Z,24.69
2018-09-18T20:03:36.091Z,24.71
2018-09-18T20:06:02.799Z,24.71
2018-09-18T20:08:30.515Z,24.69
2018-09-18T20:10:56.077Z,24.68
2018-09-18T20:13:22.719Z,24.64
2018-09-18T20:15:49.407Z,24.65
2018-09-18T20:18:16.044Z,24.65
2018-09-18T20:20:42.705Z,24.64
2018-09-18T20:23:09.376Z,24.64
2018-09-18T20:25:35.997Z,24.61
2018-09-18T20:28:02.955Z,24.64
2018-09-18T20:30:29.612Z,24.60
2018-09-18T20:32:56.299Z,24.60
2018-09-18T20:35:22.955Z,24.61
2018-09-18T20:37:49.649Z,24.59
2018-09-18T20:40:16.269Z,24.54
2018-09-18T20:42:42.909Z,24.57
2018-09-18T20:45:09.551Z,24.57
2018-09-18T20:47:39.027Z,24.56
2018-09-18T20:50:05.678Z,24.55
2018-09-18T20:52:32.313Z,24.53
2018-09-18T20:54:58.965Z,24.52
2018-09-18T20:57:25.599Z,24.50
2018-09-18T20:59:52.269Z,24.49
2018-09-18T21:02:18.912Z,24.48
2018-09-18T21:04:45.576Z,24.48
2018-09-18T21:07:12.189Z,24.52
2018-09-18T21:09:38.835Z,24.49
2018-09-18T21:12:05.488Z,24.47
2018-09-18T21:14:32.182Z,24.54
2018-09-18T21:16:58.842Z,24.44
2018-09-18T21:19:25.480Z,24.51
2018-09-18T21:21:55.107Z,24.48
2018-09-18T21:24:21.737Z,24.42
2018-09-18T21:26:48.380Z,24.45
2018-09-18T21:29:16.915Z,24.46
2018-09-18T21:31:41.648Z,24.44
2018-09-18T21:34:08.280Z,24.47
2018-09-18T21:36:34.921Z,24.44
2018-09-18T21:39:01.560Z,24.41
2018-09-18T21:41:28.236Z,24.41
2018-09-18T21:43:54.951Z,24.41
2018-09-18T21:46:21.516Z,24.44
2018-09-18T21:48:52.227Z,24.41
2018-09-18T21:51:18.853Z,24.41
2018-09-18T21:53:45.563Z,24.39
2018-09-18T21:56:15.406Z,24.40
2018-09-18T21:58:42.057Z,24.38
2018-09-18T22:01:08.809Z,24.42
2018-09-18T22:03:35.615Z,24.40
2018-09-18T22:06:02.258Z,24.39
2018-09-18T22:08:28.889Z,24.39
2018-09-18T22:10:55.619Z,24.39
2018-09-18T22:13:22.259Z,24.34
2018-09-18T22:15:48.981Z,24.32
2018-09-18T22:18:15.655Z,24.30
2018-09-18T22:20:42.342Z,24.34
2018-09-18T22:23:08.990Z,24.30
2018-09-18T22:25:35.634Z,24.31
2018-09-18T22:28:02.276Z,24.30
2018-09-18T22:30:28.919Z,24.32
2018-09-18T22:32:55.598Z,24.27
2018-09-18T22:35:22.281Z,24.30
2018-09-18T22:37:51.945Z,24.26
2018-09-18T22:40:18.595Z,24.28
2018-09-18T22:42:45.334Z,24.27
2018-09-18T22:45:12.016Z,24.27
2018-09-18T22:47:39.871Z,24.23
2018-09-18T22:50:07.673Z,24.18
2018-09-18T22:52:34.416Z,24.20
2018-09-18T22:55:01.159Z,24.25
2018-09-18T22:57:27.902Z,24.23
2018-09-18T22:59:54.504Z,24.18
2018-09-18T23:02:21.172Z,24.19
2018-09-18T23:04:47.813Z,24.16
2018-09-18T23:07:14.484Z,24.16
2018-09-18T23:09:41.359Z,24.15
2018-09-18T23:12:08.049Z,24.16
2018-09-18T23:14:34.727Z,24.18
2018-09-18T23:17:01.410Z,24.15
2018-09-18T23:19:28.487Z,24.11
2018-09-18T23:21:57.312Z,24.11
2018-09-18T23:24:21.852Z,24.12
2018-09-18T23:26:49.762Z,24.12
2018-09-18T23:29:16.413Z,24.13
2018-09-18T23:31:43.055Z,24.12
2018-09-18T23:34:09.799Z,24.10
2018-09-18T23:36:36.468Z,24.07
2018-09-18T23:39:03.105Z,24.07
2018-09-18T23:41:29.759Z,24.08
2018-09-18T23:43:56.391Z,24.07
2018-09-18T23:46:23.029Z,24.00
2018-09-18T23:48:49.665Z,23.98
2018-09-18T23:51:19.056Z,23.98
2018-09-18T23:53:45.699Z,23.99
2018-09-18T23:56:25.803Z,24.00
2018-09-18T23:58:52.449Z,23.99
